sensor_id;sensor_type;location;lat;lon;timestamp;temperature;humidity
1361;DHT22;674;45.552;-122.600;2023-07-29T00:00:03;26.10;1.00
1361;DHT22;674;45.552;-122.600;2023-07-29T00:02:32;26.20;1.00
1361;DHT22;674;45.552;-122.600;2023-07-29T00:05:00;26.20;1.00
1361;DHT22;674;45.552;-122.600;2023-07-29T00:07:29;26.10;1.00
1361;DHT22;674;45.552;-122.600;2023-07-29T00:09:57;26.10;1.00
1361;DHT22;674;45.552;-122.600;2023-07-29T00:12:26;26.10;1.00
1361;DHT22;674;45.552;-122.600;2023-07-29T00:14:55;26.10;1.00
1361;DHT22;674;45.552;-122.600;2023-07-29T00:17:23;26.20;1.00
1361;DHT22;674;45.552;-122.600;2023-07-29T00:19:52;26.20;1.00
1361;DHT22;674;45.552;-122.600;2023-07-29T00:22:20;26.20;1.00
1361;DHT22;674;45.552;-122.600;2023-07-29T00:24:53;26.10;1.00
1361;DHT22;674;45.552;-122.600;2023-07-29T00:27:23;26.10;1.00
1361;DHT22;674;45.552;-122.600;2023-07-29T00:29:52;26.10;1.00
1361;DHT22;674;45.552;-122.600;2023-07-29T00:32:20;26.10;1.00
1361;DHT22;674;45.552;-122.600;2023-07-29T00:34:49;26.10;1.00
1361;DHT22;674;45.552;-122.600;2023-07-29T00:37:17;26.20;1.00
1361;DHT22;674;45.552;-122.600;2023-07-29T00:39:46;26.20;1.00
1361;DHT22;674;45.552;-122.600;2023-07-29T00:42:14;26.20;1.00
1361;DHT22;674;45.552;-122.600;2023-07-29T00:44:43;26.10;1.00
1361;DHT22;674;45.552;-122.600;2023-07-29T00:47:13;26.20;1.00
1361;DHT22;674;45.552;-122.600;2023-07-29T00:49:44;26.20;1.00
1361;DHT22;674;45.552;-122.600;2023-07-29T00:52:13;26.20;1.00
1361;DHT22;674;45.552;-122.600;2023-07-29T00:54:42;26.20;1.00
1361;DHT22;674;45.552;-122.600;2023-07-29T00:57:14;26.20;1.00
1361;DHT22;674;45.552;-122.600;2023-07-29T00:59:43;26.10;1.00
1361;DHT22;674;45.552;-122.600;2023-07-29T01:02:12;26.10;1.00
1361;DHT22;674;45.552;-122.600;2023-07-29T01:04:41;26.10;1.00
1361;DHT22;674;45.552;-122.600;2023-07-29T01:07:21;26.20;1.00
1361;DHT22;674;45.552;-122.600;2023-07-29T01:10:14;26.10;1.00
1361;DHT22;674;45.552;-122.600;2023-07-29T01:16:01;26.00;1.00
1361;DHT22;674;45.552;-122.600;2023-07-29T01:18:36;25.90;1.00
1361;DHT22;674;45.552;-122.600;2023-07-29T01:21:08;25.90;1.00
1361;DHT22;674;45.552;-122.600;2023-07-29T01:23:37;25.90;1.00
1361;DHT22;674;45.552;-122.600;2023-07-29T01:26:05;25.90;1.00
1361;DHT22;674;45.552;-122.600;2023-07-29T01:28:34;25.90;1.00
1361;DHT22;674;45.552;-122.600;2023-07-29T01:31:12;25.90;1.00
1361;DHT22;674;45.552;-122.600;2023-07-29T01:33:58;25.90;1.00
1361;DHT22;674;45.552;-122.600;2023-07-29T01:36:29;25.90;1.00
1361;DHT22;674;45.552;-122.600;2023-07-29T01:38:59;25.80;1.00
1361;DHT22;674;45.552;-122.600;2023-07-29T01:41:29;25.70;1.00
1361;DHT22;674;45.552;-122.600;2023-07-29T01:43:58;25.70;1.00
1361;DHT22;674;45.552;-122.600;2023-07-29T01:46:27;25.70;1.00
1361;DHT22;674;45.552;-122.600;2023-07-29T01:48:56;25.70;1.00
1361;DHT22;674;45.552;-122.600;2023-07-29T01:51:25;25.70;1.00
1361;DHT22;674;45.552;-122.600;2023-07-29T01:53:56;25.60;1.00
1361;DHT22;674;45.552;-122.600;2023-07-29T01:56:27;25.60;1.00
1361;DHT22;674;45.552;-122.600;2023-07-29T01:58:55;25.60;1.00
1361;DHT22;674;45.552;-122.600;2023-07-29T02:01:24;25.70;1.00
1361;DHT22;674;45.552;-122.600;2023-07-29T02:03:52;25.70;1.00
1361;DHT22;674;45.552;-122.600;2023-07-29T02:06:23;25.70;1.00
1361;DHT22;674;45.552;-122.600;2023-07-29T02:08:52;25.70;1.00
1361;DHT22;674;45.552;-122.600;2023-07-29T02:11:21;25.70;1.00
1361;DHT22;674;45.552;-122.600;2023-07-29T02:13:55;25.70;1.00
1361;DHT22;674;45.552;-122.600;2023-07-29T02:16:24;25.60;1.00
1361;DHT22;674;45.552;-122.600;2023-07-29T02:18:53;25.60;1.00
1361;DHT22;674;45.552;-122.600;2023-07-29T02:21:22;25.60;1.00
1361;DHT22;674;45.552;-122.600;2023-07-29T02:23:51;25.60;1.00
1361;DHT22;674;45.552;-122.600;2023-07-29T02:26:20;25.50;1.00
1361;DHT22;674;45.552;-122.600;2023-07-29T02:28:48;25.50;1.00
1361;DHT22;674;45.552;-122.600;2023-07-29T02:31:17;25.40;1.00
1361;DHT22;674;45.552;-122.600;2023-07-29T02:33:46;25.40;1.00
1361;DHT22;674;45.552;-122.600;2023-07-29T02:36:15;25.40;1.00
1361;DHT22;674;45.552;-122.600;2023-07-29T02:38:44;25.30;1.00
1361;DHT22;674;45.552;-122.600;2023-07-29T02:41:13;25.30;1.00
1361;DHT22;674;45.552;-122.600;2023-07-29T02:43:48;25.20;1.00
1361;DHT22;674;45.552;-122.600;2023-07-29T02:46:17;25.20;1.00
1361;DHT22;674;45.552;-122.600;2023-07-29T02:48:47;25.20;1.00
1361;DHT22;674;45.552;-122.600;2023-07-29T02:51:19;25.10;1.00
1361;DHT22;674;45.552;-122.600;2023-07-29T02:53:47;25.00;1.00
1361;DHT22;674;45.552;-122.600;2023-07-29T02:56:16;25.00;1.00
1361;DHT22;674;45.552;-122.600;2023-07-29T02:58:44;24.90;1.00
1361;DHT22;674;45.552;-122.600;2023-07-29T03:01:13;24.90;1.00
1361;DHT22;674;45.552;-122.600;2023-07-29T03:03:41;24.80;1.00
1361;DHT22;674;45.552;-122.600;2023-07-29T03:06:16;24.70;1.00
1361;DHT22;674;45.552;-122.600;2023-07-29T03:08:45;24.70;1.00
1361;DHT22;674;45.552;-122.600;2023-07-29T03:11:15;24.60;1.00
1361;DHT22;674;45.552;-122.600;2023-07-29T03:13:44;24.50;1.00
1361;DHT22;674;45.552;-122.600;2023-07-29T03:16:17;24.40;1.00
1361;DHT22;674;45.552;-122.600;2023-07-29T03:18:48;24.30;1.00
1361;DHT22;674;45.552;-122.600;2023-07-29T03:21:20;24.20;1.00
1361;DHT22;674;45.552;-122.600;2023-07-29T03:23:48;24.10;1.00
1361;DHT22;674;45.552;-122.600;2023-07-29T03:26:17;24.10;1.00
1361;DHT22;674;45.552;-122.600;2023-07-29T03:28:45;24.00;1.00
1361;DHT22;674;45.552;-122.600;2023-07-29T03:31:14;23.90;1.00
1361;DHT22;674;45.552;-122.600;2023-07-29T03:33:43;23.90;1.00
1361;DHT22;674;45.552;-122.600;2023-07-29T03:36:14;23.70;1.00
1361;DHT22;674;45.552;-122.600;2023-07-29T03:38:43;23.70;1.00
1361;DHT22;674;45.552;-122.600;2023-07-29T03:41:12;23.70;1.00
1361;DHT22;674;45.552;-122.600;2023-07-29T03:43:41;23.60;1.00
1361;DHT22;674;45.552;-122.600;2023-07-29T03:46:10;23.50;1.00
1361;DHT22;674;45.552;-122.600;2023-07-29T03:48:39;23.40;1.00
1361;DHT22;674;45.552;-122.600;2023-07-29T03:51:08;23.40;1.00
1361;DHT22;674;45.552;-122.600;2023-07-29T03:53:37;23.40;1.00
1361;DHT22;674;45.552;-122.600;2023-07-29T03:56:05;23.30;1.00
1361;DHT22;674;45.552;-122.600;2023-07-29T03:58:34;23.20;1.00
1361;DHT22;674;45.552;-122.600;2023-07-29T04:01:02;23.20;1.00
1361;DHT22;674;45.552;-122.600;2023-07-29T04:03:33;23.20;1.00
1361;DHT22;674;45.552;-122.600;2023-07-29T04:06:02;23.00;1.00
1361;DHT22;674;45.552;-122.600;2023-07-29T04:08:31;23.00;1.00
1361;DHT22;674;45.552;-122.600;2023-07-29T04:11:00;22.90;1.00
1361;DHT22;674;45.552;-122.600;2023-07-29T04:13:28;22.90;1.00
1361;DHT22;674;45.552;-122.600;2023-07-29T04:15:57;22.80;1.00
1361;DHT22;674;45.552;-122.600;2023-07-29T04:18:25;22.70;1.00
1361;DHT22;674;45.552;-122.600;2023-07-29T04:20:54;22.60;1.00
1361;DHT22;674;45.552;-122.600;2023-07-29T04:23:23;22.60;1.00
1361;DHT22;674;45.552;-122.600;2023-07-29T04:25:51;22.50;1.00
1361;DHT22;674;45.552;-122.600;2023-07-29T04:28:20;22.40;1.00
1361;DHT22;674;45.552;-122.600;2023-07-29T04:30:48;22.30;1.00
1361;DHT22;674;45.552;-122.600;2023-07-29T04:33:17;22.20;1.00
1361;DHT22;674;45.552;-122.600;2023-07-29T04:35:45;22.20;1.00
1361;DHT22;674;45.552;-122.600;2023-07-29T04:38:14;22.10;1.00
1361;DHT22;674;45.552;-122.600;2023-07-29T04:40:42;22.10;1.00
1361;DHT22;674;45.552;-122.600;2023-07-29T04:43:11;22.00;1.00
1361;DHT22;674;45.552;-122.600;2023-07-29T04:45:43;22.00;1.00
1361;DHT22;674;45.552;-122.600;2023-07-29T04:48:18;21.90;1.00
1361;DHT22;674;45.552;-122.600;2023-07-29T04:50:47;21.80;1.00
1361;DHT22;674;45.552;-122.600;2023-07-29T04:53:18;21.70;1.00
1361;DHT22;674;45.552;-122.600;2023-07-29T04:55:48;21.70;1.00
1361;DHT22;674;45.552;-122.600;2023-07-29T04:58:16;21.60;1.00
1361;DHT22;674;45.552;-122.600;2023-07-29T05:00:47;21.50;1.00
1361;DHT22;674;45.552;-122.600;2023-07-29T05:03:15;21.50;1.00
1361;DHT22;674;45.552;-122.600;2023-07-29T05:05:44;21.40;1.00
1361;DHT22;674;45.552;-122.600;2023-07-29T05:08:12;21.20;1.00
1361;DHT22;674;45.552;-122.600;2023-07-29T05:10:41;21.20;1.00
1361;DHT22;674;45.552;-122.600;2023-07-29T05:13:09;21.20;1.00
1361;DHT22;674;45.552;-122.600;2023-07-29T05:15:38;21.10;1.00
1361;DHT22;674;45.552;-122.600;2023-07-29T05:18:07;21.00;1.00
1361;DHT22;674;45.552;-122.600;2023-07-29T05:20:35;21.00;1.00
1361;DHT22;674;45.552;-122.600;2023-07-29T05:23:03;20.90;1.00
1361;DHT22;674;45.552;-122.600;2023-07-29T05:25:32;20.90;1.00
1361;DHT22;674;45.552;-122.600;2023-07-29T05:28:03;20.80;1.00
1361;DHT22;674;45.552;-122.600;2023-07-29T05:30:33;20.70;1.00
1361;DHT22;674;45.552;-122.600;2023-07-29T05:33:05;20.60;1.00
1361;DHT22;674;45.552;-122.600;2023-07-29T05:35:36;20.50;1.00
1361;DHT22;674;45.552;-122.600;2023-07-29T05:38:05;20.50;1.00
1361;DHT22;674;45.552;-122.600;2023-07-29T05:40:36;20.40;1.00
1361;DHT22;674;45.552;-122.600;2023-07-29T05:43:05;20.40;1.00
1361;DHT22;674;45.552;-122.600;2023-07-29T05:45:34;20.30;1.00
1361;DHT22;674;45.552;-122.600;2023-07-29T05:48:02;20.40;1.00
1361;DHT22;674;45.552;-122.600;2023-07-29T05:50:31;20.30;1.00
1361;DHT22;674;45.552;-122.600;2023-07-29T05:53:00;20.20;1.00
1361;DHT22;674;45.552;-122.600;2023-07-29T05:55:28;20.20;1.00
1361;DHT22;674;45.552;-122.600;2023-07-29T05:57:57;20.10;1.00
1361;DHT22;674;45.552;-122.600;2023-07-29T06:00:25;20.10;1.00
1361;DHT22;674;45.552;-122.600;2023-07-29T06:02:54;20.00;1.00
1361;DHT22;674;45.552;-122.600;2023-07-29T06:05:23;20.00;1.00
1361;DHT22;674;45.552;-122.600;2023-07-29T06:07:51;19.90;1.00
1361;DHT22;674;45.552;-122.600;2023-07-29T06:10:20;19.90;1.00
1361;DHT22;674;45.552;-122.600;2023-07-29T06:12:48;19.80;1.00
1361;DHT22;674;45.552;-122.600;2023-07-29T06:15:17;19.80;1.00
1361;DHT22;674;45.552;-122.600;2023-07-29T06:17:47;19.80;1.00
1361;DHT22;674;45.552;-122.600;2023-07-29T06:20:16;19.70;1.00
1361;DHT22;674;45.552;-122.600;2023-07-29T06:22:44;19.70;1.00
1361;DHT22;674;45.552;-122.600;2023-07-29T06:25:13;19.60;1.00
1361;DHT22;674;45.552;-122.600;2023-07-29T06:27:42;19.60;1.00
1361;DHT22;674;45.552;-122.600;2023-07-29T06:30:11;19.60;1.00
1361;DHT22;674;45.552;-122.600;2023-07-29T06:32:39;19.50;1.00
1361;DHT22;674;45.552;-122.600;2023-07-29T06:35:08;19.40;1.00
1361;DHT22;674;45.552;-122.600;2023-07-29T06:37:36;19.40;1.00
1361;DHT22;674;45.552;-122.600;2023-07-29T06:40:05;19.40;1.00
1361;DHT22;674;45.552;-122.600;2023-07-29T06:42:34;19.30;1.00
1361;DHT22;674;45.552;-122.600;2023-07-29T06:45:04;19.10;1.00
1361;DHT22;674;45.552;-122.600;2023-07-29T06:47:33;19.10;1.00
1361;DHT22;674;45.552;-122.600;2023-07-29T06:50:02;19.10;1.00
1361;DHT22;674;45.552;-122.600;2023-07-29T06:52:30;19.10;1.00
1361;DHT22;674;45.552;-122.600;2023-07-29T06:54:59;19.10;1.00
1361;DHT22;674;45.552;-122.600;2023-07-29T06:57:27;19.00;1.00
1361;DHT22;674;45.552;-122.600;2023-07-29T06:59:56;19.00;1.00
1361;DHT22;674;45.552;-122.600;2023-07-29T07:02:24;19.00;1.00
1361;DHT22;674;45.552;-122.600;2023-07-29T07:04:53;18.90;1.00
1361;DHT22;674;45.552;-122.600;2023-07-29T07:07:22;18.90;1.00
1361;DHT22;674;45.552;-122.600;2023-07-29T07:09:50;18.80;1.00
1361;DHT22;674;45.552;-122.600;2023-07-29T07:12:19;18.80;1.00
1361;DHT22;674;45.552;-122.600;2023-07-29T07:14:48;18.70;1.00
1361;DHT22;674;45.552;-122.600;2023-07-29T07:17:16;18.80;1.00
1361;DHT22;674;45.552;-122.600;2023-07-29T07:19:45;18.70;1.00
1361;DHT22;674;45.552;-122.600;2023-07-29T07:22:14;18.70;1.00
1361;DHT22;674;45.552;-122.600;2023-07-29T07:24:43;18.60;1.00
1361;DHT22;674;45.552;-122.600;2023-07-29T07:27:11;18.60;1.00
1361;DHT22;674;45.552;-122.600;2023-07-29T07:29:40;18.60;1.00
1361;DHT22;674;45.552;-122.600;2023-07-29T07:32:08;18.40;1.00
1361;DHT22;674;45.552;-122.600;2023-07-29T07:34:37;18.40;1.00
1361;DHT22;674;45.552;-122.600;2023-07-29T07:37:06;18.40;1.00
1361;DHT22;674;45.552;-122.600;2023-07-29T07:39:34;18.30;1.00
1361;DHT22;674;45.552;-122.600;2023-07-29T07:42:03;18.30;1.00
1361;DHT22;674;45.552;-122.600;2023-07-29T07:44:32;18.30;1.00
1361;DHT22;674;45.552;-122.600;2023-07-29T07:47:00;18.30;1.00
1361;DHT22;674;45.552;-122.600;2023-07-29T07:49:31;18.30;1.00
1361;DHT22;674;45.552;-122.600;2023-07-29T07:52:00;18.20;1.00
1361;DHT22;674;45.552;-122.600;2023-07-29T07:54:28;18.30;1.00
1361;DHT22;674;45.552;-122.600;2023-07-29T07:56:57;18.10;1.00
1361;DHT22;674;45.552;-122.600;2023-07-29T07:59:25;18.10;1.00
1361;DHT22;674;45.552;-122.600;2023-07-29T08:01:54;18.00;1.00
1361;DHT22;674;45.552;-122.600;2023-07-29T08:04:22;18.10;1.00
1361;DHT22;674;45.552;-122.600;2023-07-29T08:06:51;18.10;1.00
1361;DHT22;674;45.552;-122.600;2023-07-29T08:09:19;18.00;1.00
1361;DHT22;674;45.552;-122.600;2023-07-29T08:11:48;18.00;1.00
1361;DHT22;674;45.552;-122.600;2023-07-29T08:14:16;18.00;1.00
1361;DHT22;674;45.552;-122.600;2023-07-29T08:16:45;18.00;1.00
1361;DHT22;674;45.552;-122.600;2023-07-29T08:19:13;18.00;1.00
1361;DHT22;674;45.552;-122.600;2023-07-29T08:21:42;17.90;1.00
1361;DHT22;674;45.552;-122.600;2023-07-29T08:24:10;17.90;1.00
1361;DHT22;674;45.552;-122.600;2023-07-29T08:26:39;17.90;1.00
1361;DHT22;674;45.552;-122.600;2023-07-29T08:29:07;17.90;1.00
1361;DHT22;674;45.552;-122.600;2023-07-29T08:31:36;17.80;1.00
1361;DHT22;674;45.552;-122.600;2023-07-29T08:34:04;17.80;1.00
1361;DHT22;674;45.552;-122.600;2023-07-29T08:36:33;17.70;1.00
1361;DHT22;674;45.552;-122.600;2023-07-29T08:39:02;17.70;1.00
1361;DHT22;674;45.552;-122.600;2023-07-29T08:42:01;17.70;1.00
1361;DHT22;674;45.552;-122.600;2023-07-29T08:44:40;17.60;1.00
1361;DHT22;674;45.552;-122.600;2023-07-29T08:47:08;17.60;1.00
1361;DHT22;674;45.552;-122.600;2023-07-29T08:49:38;17.50;1.00
1361;DHT22;674;45.552;-122.600;2023-07-29T08:52:07;17.50;1.00
1361;DHT22;674;45.552;-122.600;2023-07-29T08:54:37;17.50;1.00
1361;DHT22;674;45.552;-122.600;2023-07-29T08:57:06;17.40;1.00
1361;DHT22;674;45.552;-122.600;2023-07-29T08:59:35;17.50;1.00
1361;DHT22;674;45.552;-122.600;2023-07-29T09:02:04;17.40;1.00
1361;DHT22;674;45.552;-122.600;2023-07-29T09:04:32;17.40;1.00
1361;DHT22;674;45.552;-122.600;2023-07-29T09:07:01;17.40;1.00
1361;DHT22;674;45.552;-122.600;2023-07-29T09:09:30;17.40;1.00
1361;DHT22;674;45.552;-122.600;2023-07-29T09:11:58;17.40;1.00
1361;DHT22;674;45.552;-122.600;2023-07-29T09:14:27;17.40;1.00
1361;DHT22;674;45.552;-122.600;2023-07-29T09:16:56;17.30;1.00
1361;DHT22;674;45.552;-122.600;2023-07-29T09:19:27;17.30;1.00
1361;DHT22;674;45.552;-122.600;2023-07-29T09:21:56;17.30;1.00
1361;DHT22;674;45.552;-122.600;2023-07-29T09:24:25;17.30;1.00
1361;DHT22;674;45.552;-122.600;2023-07-29T09:26:57;17.20;1.00
1361;DHT22;674;45.552;-122.600;2023-07-29T09:29:28;17.10;1.00
1361;DHT22;674;45.552;-122.600;2023-07-29T09:32:17;17.10;1.00
1361;DHT22;674;45.552;-122.600;2023-07-29T09:34:46;17.10;1.00
1361;DHT22;674;45.552;-122.600;2023-07-29T09:37:24;17.10;1.00
1361;DHT22;674;45.552;-122.600;2023-07-29T09:39:52;17.10;1.00
1361;DHT22;674;45.552;-122.600;2023-07-29T09:42:22;17.10;1.00
1361;DHT22;674;45.552;-122.600;2023-07-29T09:44:51;17.00;1.00
1361;DHT22;674;45.552;-122.600;2023-07-29T09:47:24;17.00;1.00
1361;DHT22;674;45.552;-122.600;2023-07-29T09:49:53;17.00;1.00
1361;DHT22;674;45.552;-122.600;2023-07-29T09:52:23;17.00;1.00
1361;DHT22;674;45.552;-122.600;2023-07-29T09:54:51;17.00;1.00
1361;DHT22;674;45.552;-122.600;2023-07-29T09:57:20;16.90;1.00
1361;DHT22;674;45.552;-122.600;2023-07-29T09:59:55;16.90;1.00
1361;DHT22;674;45.552;-122.600;2023-07-29T10:02:24;16.90;1.00
1361;DHT22;674;45.552;-122.600;2023-07-29T10:04:56;16.80;1.00
1361;DHT22;674;45.552;-122.600;2023-07-29T10:07:26;16.80;1.00
1361;DHT22;674;45.552;-122.600;2023-07-29T10:09:55;16.80;1.00
1361;DHT22;674;45.552;-122.600;2023-07-29T10:12:25;16.80;1.00
1361;DHT22;674;45.552;-122.600;2023-07-29T10:14:54;16.80;1.00
1361;DHT22;674;45.552;-122.600;2023-07-29T10:17:24;16.80;1.00
1361;DHT22;674;45.552;-122.600;2023-07-29T10:19:56;16.80;1.00
1361;DHT22;674;45.552;-122.600;2023-07-29T10:22:28;16.80;1.00
1361;DHT22;674;45.552;-122.600;2023-07-29T10:25:04;16.70;1.00
1361;DHT22;674;45.552;-122.600;2023-07-29T10:27:48;16.70;1.00
1361;DHT22;674;45.552;-122.600;2023-07-29T10:30:17;16.70;1.00
1361;DHT22;674;45.552;-122.600;2023-07-29T10:32:46;16.70;1.00
1361;DHT22;674;45.552;-122.600;2023-07-29T10:35:15;16.70;1.00
1361;DHT22;674;45.552;-122.600;2023-07-29T10:37:44;16.70;1.00
1361;DHT22;674;45.552;-122.600;2023-07-29T10:40:13;16.60;1.00
1361;DHT22;674;45.552;-122.600;2023-07-29T10:43:10;16.60;1.00
1361;DHT22;674;45.552;-122.600;2023-07-29T10:45:41;16.60;1.00
1361;DHT22;674;45.552;-122.600;2023-07-29T10:54:19;16.50;1.00
1361;DHT22;674;45.552;-122.600;2023-07-29T10:56:49;16.50;1.00
1361;DHT22;674;45.552;-122.600;2023-07-29T11:01:58;16.40;1.00
1361;DHT22;674;45.552;-122.600;2023-07-29T11:04:29;16.40;1.00
1361;DHT22;674;45.552;-122.600;2023-07-29T11:12:40;16.30;1.00
1361;DHT22;674;45.552;-122.600;2023-07-29T11:17:42;16.30;1.00
1361;DHT22;674;45.552;-122.600;2023-07-29T11:20:12;16.30;1.00
1361;DHT22;674;45.552;-122.600;2023-07-29T11:22:41;16.30;1.00
1361;DHT22;674;45.552;-122.600;2023-07-29T11:25:12;16.20;1.00
1361;DHT22;674;45.552;-122.600;2023-07-29T11:27:41;16.20;1.00
1361;DHT22;674;45.552;-122.600;2023-07-29T11:30:13;16.20;1.00
1361;DHT22;674;45.552;-122.600;2023-07-29T11:32:44;16.20;1.00
1361;DHT22;674;45.552;-122.600;2023-07-29T11:35:15;16.20;1.00
1361;DHT22;674;45.552;-122.600;2023-07-29T11:37:46;16.10;1.00
1361;DHT22;674;45.552;-122.600;2023-07-29T11:40:19;16.10;1.00
1361;DHT22;674;45.552;-122.600;2023-07-29T11:42:50;16.10;1.00
1361;DHT22;674;45.552;-122.600;2023-07-29T11:45:20;16.00;1.00
1361;DHT22;674;45.552;-122.600;2023-07-29T11:47:56;16.00;1.00
1361;DHT22;674;45.552;-122.600;2023-07-29T11:50:25;16.00;1.00
1361;DHT22;674;45.552;-122.600;2023-07-29T11:52:54;15.90;1.00
1361;DHT22;674;45.552;-122.600;2023-07-29T11:55:22;15.90;1.00
1361;DHT22;674;45.552;-122.600;2023-07-29T11:57:52;15.90;1.00
1361;DHT22;674;45.552;-122.600;2023-07-29T12:00:21;15.90;1.00
1361;DHT22;674;45.552;-122.600;2023-07-29T12:02:50;15.90;1.00
1361;DHT22;674;45.552;-122.600;2023-07-29T12:05:20;15.80;1.00
1361;DHT22;674;45.552;-122.600;2023-07-29T12:07:49;15.80;1.00
1361;DHT22;674;45.552;-122.600;2023-07-29T12:10:18;15.80;1.00
1361;DHT22;674;45.552;-122.600;2023-07-29T12:12:49;15.80;1.00
1361;DHT22;674;45.552;-122.600;2023-07-29T12:15:26;15.70;1.00
1361;DHT22;674;45.552;-122.600;2023-07-29T12:17:59;15.80;1.00
1361;DHT22;674;45.552;-122.600;2023-07-29T12:20:30;15.70;1.00
1361;DHT22;674;45.552;-122.600;2023-07-29T12:22:59;15.70;1.00
1361;DHT22;674;45.552;-122.600;2023-07-29T12:25:33;15.70;1.00
1361;DHT22;674;45.552;-122.600;2023-07-29T12:28:06;15.70;1.00
1361;DHT22;674;45.552;-122.600;2023-07-29T12:30:41;15.70;1.00
1361;DHT22;674;45.552;-122.600;2023-07-29T12:33:10;15.60;1.00
1361;DHT22;674;45.552;-122.600;2023-07-29T12:35:39;15.60;1.00
1361;DHT22;674;45.552;-122.600;2023-07-29T12:38:08;15.60;1.00
1361;DHT22;674;45.552;-122.600;2023-07-29T12:40:38;15.60;1.00
1361;DHT22;674;45.552;-122.600;2023-07-29T12:43:08;15.60;1.00
1361;DHT22;674;45.552;-122.600;2023-07-29T12:45:37;15.60;1.00
1361;DHT22;674;45.552;-122.600;2023-07-29T12:48:08;15.60;1.00
1361;DHT22;674;45.552;-122.600;2023-07-29T12:50:38;15.50;1.00
1361;DHT22;674;45.552;-122.600;2023-07-29T12:53:07;15.50;1.00
1361;DHT22;674;45.552;-122.600;2023-07-29T12:55:38;15.50;1.00
1361;DHT22;674;45.552;-122.600;2023-07-29T12:58:06;15.50;1.00
1361;DHT22;674;45.552;-122.600;2023-07-29T13:00:35;15.50;1.00
1361;DHT22;674;45.552;-122.600;2023-07-29T13:03:03;15.50;1.00
1361;DHT22;674;45.552;-122.600;2023-07-29T13:05:33;15.50;1.00
1361;DHT22;674;45.552;-122.600;2023-07-29T13:08:02;15.50;1.00
1361;DHT22;674;45.552;-122.600;2023-07-29T13:10:30;15.50;1.00
1361;DHT22;674;45.552;-122.600;2023-07-29T13:12:59;15.50;1.00
1361;DHT22;674;45.552;-122.600;2023-07-29T13:15:27;15.50;1.00
1361;DHT22;674;45.552;-122.600;2023-07-29T13:17:56;15.50;1.00
1361;DHT22;674;45.552;-122.600;2023-07-29T13:20:24;15.50;1.00
1361;DHT22;674;45.552;-122.600;2023-07-29T13:22:53;15.50;1.00
1361;DHT22;674;45.552;-122.600;2023-07-29T13:25:21;15.50;1.00
1361;DHT22;674;45.552;-122.600;2023-07-29T13:27:50;15.50;1.00
1361;DHT22;674;45.552;-122.600;2023-07-29T13:30:18;15.50;1.00
1361;DHT22;674;45.552;-122.600;2023-07-29T13:32:47;15.50;1.00
1361;DHT22;674;45.552;-122.600;2023-07-29T13:35:16;15.50;1.00
1361;DHT22;674;45.552;-122.600;2023-07-29T13:37:44;15.50;1.00
1361;DHT22;674;45.552;-122.600;2023-07-29T13:40:12;15.50;1.00
1361;DHT22;674;45.552;-122.600;2023-07-29T13:42:41;15.50;1.00
1361;DHT22;674;45.552;-122.600;2023-07-29T13:45:10;15.60;1.00
1361;DHT22;674;45.552;-122.600;2023-07-29T13:47:38;15.60;1.00
1361;DHT22;674;45.552;-122.600;2023-07-29T13:50:07;15.60;1.00
1361;DHT22;674;45.552;-122.600;2023-07-29T13:52:37;15.60;1.00
1361;DHT22;674;45.552;-122.600;2023-07-29T13:55:06;15.60;1.00
1361;DHT22;674;45.552;-122.600;2023-07-29T13:57:34;15.70;1.00
1361;DHT22;674;45.552;-122.600;2023-07-29T14:00:03;15.70;1.00
1361;DHT22;674;45.552;-122.600;2023-07-29T14:02:32;15.80;1.00
1361;DHT22;674;45.552;-122.600;2023-07-29T14:05:00;15.80;1.00
1361;DHT22;674;45.552;-122.600;2023-07-29T14:07:29;15.80;1.00
1361;DHT22;674;45.552;-122.600;2023-07-29T14:09:57;15.80;1.00
1361;DHT22;674;45.552;-122.600;2023-07-29T14:12:28;15.90;1.00
1361;DHT22;674;45.552;-122.600;2023-07-29T14:14:56;15.80;5.60
1361;DHT22;674;45.552;-122.600;2023-07-29T14:17:25;15.80;1.00
1361;DHT22;674;45.552;-122.600;2023-07-29T14:19:53;15.90;1.00
1361;DHT22;674;45.552;-122.600;2023-07-29T14:22:22;16.00;1.00
1361;DHT22;674;45.552;-122.600;2023-07-29T14:24:51;16.10;1.00
1361;DHT22;674;45.552;-122.600;2023-07-29T14:27:19;16.20;1.00
1361;DHT22;674;45.552;-122.600;2023-07-29T14:29:48;16.30;1.00
1361;DHT22;674;45.552;-122.600;2023-07-29T14:32:16;16.30;1.00
1361;DHT22;674;45.552;-122.600;2023-07-29T14:34:48;16.30;1.00
1361;DHT22;674;45.552;-122.600;2023-07-29T14:37:17;16.20;1.00
1361;DHT22;674;45.552;-122.600;2023-07-29T14:39:45;16.40;1.00
1361;DHT22;674;45.552;-122.600;2023-07-29T14:42:14;16.40;1.00
1361;DHT22;674;45.552;-122.600;2023-07-29T14:44:42;16.50;1.00
1361;DHT22;674;45.552;-122.600;2023-07-29T14:47:11;16.60;1.00
1361;DHT22;674;45.552;-122.600;2023-07-29T14:49:39;16.60;1.00
1361;DHT22;674;45.552;-122.600;2023-07-29T14:52:08;16.70;1.00
1361;DHT22;674;45.552;-122.600;2023-07-29T14:54:36;16.70;1.00
1361;DHT22;674;45.552;-122.600;2023-07-29T14:57:06;16.80;1.00
1361;DHT22;674;45.552;-122.600;2023-07-29T14:59:35;16.90;1.00
1361;DHT22;674;45.552;-122.600;2023-07-29T15:02:03;17.00;1.00
1361;DHT22;674;45.552;-122.600;2023-07-29T15:04:32;17.00;1.00
1361;DHT22;674;45.552;-122.600;2023-07-29T15:07:02;17.10;1.00
1361;DHT22;674;45.552;-122.600;2023-07-29T15:09:31;17.20;1.00
1361;DHT22;674;45.552;-122.600;2023-07-29T15:11:59;17.20;1.00
1361;DHT22;674;45.552;-122.600;2023-07-29T15:14:28;17.20;1.00
1361;DHT22;674;45.552;-122.600;2023-07-29T15:16:57;17.20;1.00
1361;DHT22;674;45.552;-122.600;2023-07-29T15:19:25;17.30;1.00
1361;DHT22;674;45.552;-122.600;2023-07-29T15:21:56;17.40;1.00
1361;DHT22;674;45.552;-122.600;2023-07-29T15:24:27;17.40;1.00
1361;DHT22;674;45.552;-122.600;2023-07-29T15:26:58;17.40;1.00
1361;DHT22;674;45.552;-122.600;2023-07-29T15:29:26;17.50;1.00
1361;DHT22;674;45.552;-122.600;2023-07-29T15:31:55;17.50;1.00
1361;DHT22;674;45.552;-122.600;2023-07-29T15:34:26;17.60;1.00
1361;DHT22;674;45.552;-122.600;2023-07-29T15:36:55;17.70;1.00
1361;DHT22;674;45.552;-122.600;2023-07-29T15:39:24;17.70;1.00
1361;DHT22;674;45.552;-122.600;2023-07-29T15:41:53;17.90;1.00
1361;DHT22;674;45.552;-122.600;2023-07-29T15:44:22;17.90;1.00
1361;DHT22;674;45.552;-122.600;2023-07-29T15:46:50;18.00;1.00
1361;DHT22;674;45.552;-122.600;2023-07-29T15:49:24;18.00;1.00
1361;DHT22;674;45.552;-122.600;2023-07-29T15:51:55;18.00;1.00
1361;DHT22;674;45.552;-122.600;2023-07-29T15:54:24;18.10;1.00
1361;DHT22;674;45.552;-122.600;2023-07-29T15:56:52;18.10;1.00
1361;DHT22;674;45.552;-122.600;2023-07-29T15:59:21;18.20;1.00
1361;DHT22;674;45.552;-122.600;2023-07-29T16:01:50;18.20;1.00
1361;DHT22;674;45.552;-122.600;2023-07-29T16:04:18;18.20;1.00
1361;DHT22;674;45.552;-122.600;2023-07-29T16:06:47;18.20;1.00
1361;DHT22;674;45.552;-122.600;2023-07-29T16:09:15;18.20;1.00
1361;DHT22;674;45.552;-122.600;2023-07-29T16:11:45;18.30;1.00
1361;DHT22;674;45.552;-122.600;2023-07-29T16:14:14;18.30;1.00
1361;DHT22;674;45.552;-122.600;2023-07-29T16:16:42;18.40;1.00
1361;DHT22;674;45.552;-122.600;2023-07-29T16:19:12;18.40;1.00